Fritch, TX (79036)

4:11 AM CDT on August 21, 2014 (GMT -0500)
KTXFRITC2 | Change Station
CLOSE
Current Station
Personal Weather Station
Location: Fritch, TX
Elevation: 3160 ft
Nearby Weather Stations

Elev 3160 ft 35.64 °N, 101.60 °W | Updated 11 seconds ago

Clear
Clear
77.2 °F
Feels Like 79 °F
N
9.6
Wind Variable Wind from SSW
Gusts 9.6 mph

Today
High -- | Low -- °F
--% Chance of Precip.
Yesterday
High -- | Low -- °F
Precip. -- in
7:10 AM 8:28 PM
Waning Crescent, 15% visible
Pressure 29.78 in
Visibility 10.0 miles
Clouds Clear
Heat Index 79 °F
Dew Point 63 °F
Humidity 61%
Rainfall 0.00 in
Snow Depth Not available.
UV 0 out of 12
Pollen 8.80 out of 12
Air Quality Not available.
Flu Activity Not available.
METAR KBGD 210851Z AUTO 18014G22KT 10SM CLR 26/17 A2994 RMK AO2 SLP083 T02560167 53003

More Conditions Fewer Conditions

Pressure 29.78 in
Visibility 10.0 miles
Clouds Clear
Heat Index 79 °F
Dew Point 63 °F
Humidity 61%
Rainfall 0.00 in
Snow Depth Not available.
UV 0 out of 12
Pollen 8.80 out of 12
Air Quality Not available.
Flu Activity Not available.
METAR KBGD 210851Z AUTO 18014G22KT 10SM CLR 26/17 A2994 RMK AO2 SLP083 T02560167 53003

More Conditions Fewer Conditions

10-Day Weather Forecast

Almanac

Astronomy

Aug. 21, 2014 Rise Set
Actual Time 7:10 AM CDT 8:28 PM CDT
Civil Twilight 6:43 AM CDT 8:54 PM CDT
Nautical Twilight 6:11 AM CDT 9:26 PM CDT
Astronomical Twilight 5:38 AM CDT 9:59 PM CDT
Moon 3:45 AM CDT 5:55 PM CDT
Length of Visible Light 14h 11m
Length of Day
13h 18m
Tomorrow will be 2m 3s shorter.
Waning Crescent, 15% of the Moon is Illuminated
Today
Waning Crescent
Aug 25
New
Sep 2
First Quarter
Sep 8
Full
Sep 15
Last Quarter

Today's Extremes

State Highs State Lows

Community

WunderPhotos

Upload Photos

1,745,864 photos uploaded!

Nearby

Snow Depth

Station Depth Elevation
No new snow has been reported.

Earthquake Activity

City Distance Mag. Time & Date
No recent earthquake activity has been reported nearby.
Minimum magnitude displayed is 2.5.

Coastal Water Temperatures

Place Temperature
No Stations Reporting

Nearby Weather Stations